Time;durP1;ratioP1;P1;durP2;ratioP2;P2;SDS_P1;SDS_P2;PMS_P1;PMS_P2;Temp;Humidity;BMP_temperature;BMP_pressure;BME280_temperature;BME280_humidity;BME280_pressure;Samples;Min_cycle;Max_cycle;Signal;HPM_P1;HPM_P2
2023/04/24 00:00:32;;;;;;;16.33;9.60;;;;;;;8.42;100.00;99738.94;5090595;28;20061;-81
2023/04/24 00:02:57;;;;;;;17.17;11.65;;;;;;;8.41;100.00;99744.50;5077142;28;20024;-81
2023/04/24 00:05:24;;;;;;;17.30;12.18;;;;;;;8.42;100.00;99752.25;5092242;28;20076;-82
2023/04/24 00:07:52;;;;;;;21.17;16.30;;;;;;;8.43;100.00;99740.56;5093375;28;20135;-80
2023/04/24 00:10:18;;;;;;;18.45;12.50;;;;;;;8.39;100.00;99742.06;5095050;28;20499;-81
2023/04/24 00:12:43;;;;;;;20.58;14.30;;;;;;;8.45;100.00;99748.31;5072481;28;20040;-81
2023/04/24 00:15:09;;;;;;;23.27;13.45;;;;;;;8.42;100.00;99754.09;5095256;28;20028;-81
2023/04/24 00:17:35;;;;;;;22.83;14.57;;;;;;;8.34;100.00;99737.38;5076838;28;20023;-83
2023/04/24 00:20:01;;;;;;;22.65;16.25;;;;;;;8.38;100.00;99738.56;5072455;28;20079;-80
2023/04/24 00:22:28;;;;;;;25.20;14.55;;;;;;;8.32;100.00;99741.28;5077217;28;20034;-83
2023/04/24 00:24:54;;;;;;;26.38;16.92;;;;;;;8.33;100.00;99746.41;5072416;28;20128;-83
2023/04/24 00:27:19;;;;;;;24.33;15.88;;;;;;;8.35;100.00;99759.50;5094780;28;20020;-84
2023/04/24 00:29:45;;;;;;;28.90;17.67;;;;;;;8.32;100.00;99759.91;5094673;28;20125;-83
2023/04/24 00:32:10;;;;;;;26.00;16.15;;;;;;;8.20;100.00;99746.56;5072279;28;20446;-82
2023/04/24 00:34:35;;;;;;;33.97;18.55;;;;;;;8.18;100.00;99747.84;5094623;28;20039;-83
2023/04/24 00:37:01;;;;;;;36.85;19.60;;;;;;;8.10;100.00;99746.31;5093781;28;20466;-81
2023/04/24 00:39:26;;;;;;;31.15;17.80;;;;;;;8.17;100.00;99765.66;5090951;28;20044;-81
2023/04/24 00:41:52;;;;;;;31.42;17.77;;;;;;;8.11;100.00;99766.56;5076496;28;20069;-81
2023/04/24 00:44:18;;;;;;;35.63;22.10;;;;;;;8.00;100.00;99760.13;5090263;28;20064;-80
2023/04/24 00:46:43;;;;;;;30.88;18.23;;;;;;;8.00;100.00;99769.97;5093713;28;20418;-82
2023/04/24 00:52:31;;;;;;;34.85;19.58;;;;;;;8.01;100.00;99751.09;5095028;28;20051;-84
2023/04/24 00:54:57;;;;;;;35.50;20.95;;;;;;;7.97;100.00;99762.44;5094479;28;20507;-80
2023/04/24 00:57:23;;;;;;;37.53;20.83;;;;;;;7.97;100.00;99759.75;5089859;28;20071;-83
2023/04/24 00:59:49;;;;;;;32.05;18.67;;;;;;;7.94;100.00;99753.03;5076022;28;20024;-83
2023/04/24 01:02:15;;;;;;;40.53;24.67;;;;;;;7.82;100.00;99757.50;5094388;28;20032;-83
2023/04/24 01:04:40;;;;;;;36.97;20.30;;;;;;;7.93;100.00;99759.41;5089591;28;20036;-84
2023/04/24 01:07:11;;;;;;;36.70;21.15;;;;;;;7.95;100.00;99760.00;5094285;28;20357;-82
2023/04/24 01:09:48;;;;;;;31.65;19.80;;;;;;;7.99;100.00;99750.53;5089673;28;20051;-82
2023/04/24 01:12:15;;;;;;;42.25;20.60;;;;;;;7.96;100.00;99735.00;5094426;28;20092;-82
2023/04/24 01:14:40;;;;;;;38.25;20.33;;;;;;;7.94;100.00;99752.22;5094278;28;20035;-80
2023/04/24 01:17:09;;;;;;;41.58;20.10;;;;;;;8.05;100.00;99759.44;5089786;28;20365;-81
2023/04/24 01:19:34;;;;;;;33.38;20.15;;;;;;;8.02;100.00;99754.56;5094475;28;20036;-81
2023/04/24 01:22:02;;;;;;;40.97;21.48;;;;;;;7.90;100.00;99757.19;5071623;28;20043;-81
2023/04/24 01:24:29;;;;;;;41.45;21.20;;;;;;;7.88;100.00;99747.81;5076475;28;20032;-83
2023/04/24 01:26:54;;;;;;;35.55;20.55;;;;;;;7.90;100.00;99761.69;5077548;28;20019;-83
2023/04/24 01:29:20;;;;;;;43.13;22.95;;;;;;;7.85;100.00;99759.72;5091061;28;20118;-81
2023/04/24 01:31:45;;;;;;;41.17;23.08;;;;;;;7.74;100.00;99750.59;5079211;28;20032;-81
2023/04/24 01:34:11;;;;;;;46.03;24.27;;;;;;;7.72;100.00;99747.34;5094166;28;20073;-81
2023/04/24 01:39:58;;;;;;;42.92;23.35;;;;;;;7.73;100.00;99756.97;5097056;28;20181;-81
2023/04/24 01:42:23;;;;;;;49.30;22.17;;;;;;;7.70;100.00;99751.28;5092704;28;20544;-83
2023/04/24 01:44:49;;;;;;;54.05;30.33;;;;;;;7.62;100.00;99754.25;5077646;28;20277;-81
2023/04/24 01:47:15;;;;;;;55.67;28.30;;;;;;;7.66;100.00;99755.41;5092129;28;20187;-82
2023/04/24 01:53:02;;;;;;;57.03;28.42;;;;;;;7.65;100.00;99748.47;5091260;28;20040;-82
2023/04/24 01:55:27;;;;;;;50.03;23.70;;;;;;;7.66;100.00;99750.91;5092282;28;20036;-82
2023/04/24 02:01:19;;;;;;;58.63;29.23;;;;;;;7.66;100.00;99758.09;5094835;28;20123;-80
2023/04/24 02:03:44;;;;;;;53.90;27.95;;;;;;;7.63;100.00;99761.19;5093403;28;20054;-82
2023/04/24 02:06:10;;;;;;;61.40;28.42;;;;;;;7.60;100.00;99762.44;5071157;28;20048;-82
2023/04/24 02:08:35;;;;;;;58.83;27.25;;;;;;;7.46;100.00;99739.66;5093184;28;20028;-81
2023/04/24 02:11:01;;;;;;;51.20;26.85;;;;;;;7.58;100.00;99758.38;5093041;28;20024;-81
2023/04/24 02:16:49;;;;;;;60.90;27.50;;;;;;;7.58;100.00;99769.03;5093338;28;20039;-81
2023/04/24 02:19:14;;;;;;;59.00;30.15;;;;;;;7.57;100.00;99767.41;5088299;28;20044;-82
2023/04/24 02:21:39;;;;;;;45.25;24.88;;;;;;;7.48;100.00;99758.88;5092902;28;20020;-82
2023/04/24 02:24:05;;;;;;;44.17;24.77;;;;;;;7.53;100.00;99759.06;5092663;28;20111;-82
2023/04/24 02:26:31;;;;;;;54.15;29.05;;;;;;;7.51;100.00;99773.56;5088101;28;20381;-80
2023/04/24 02:28:56;;;;;;;46.90;25.83;;;;;;;7.50;100.00;99761.31;5092631;28;20058;-82
2023/04/24 02:31:22;;;;;;;40.03;22.67;;;;;;;7.46;100.00;99760.94;5070390;28;20124;-82
2023/04/24 02:33:47;;;;;;;51.80;26.75;;;;;;;7.46;100.00;99761.75;5074670;28;20506;-82
2023/04/24 02:36:13;;;;;;;54.42;26.08;;;;;;;7.36;100.00;99756.13;5074439;28;20031;-82
2023/04/24 02:38:39;;;;;;;39.35;21.88;;;;;;;7.32;100.00;99749.63;5070359;28;20032;-82
2023/04/24 02:41:06;;;;;;;51.45;25.20;;;;;;;7.40;100.00;99772.47;5092524;28;20108;-81
2023/04/24 02:43:31;;;;;;;46.55;25.02;;;;;;;7.35;100.00;99748.38;5072190;28;20057;-80
2023/04/24 02:45:56;;;;;;;41.28;24.48;;;;;;;7.39;100.00;99768.19;5090274;28;20040;-84
2023/04/24 02:48:22;;;;;;;49.58;24.00;;;;;;;7.32;100.00;99760.28;5092479;28;20468;-81
2023/04/24 02:50:47;;;;;;;43.25;24.63;;;;;;;7.34;100.00;99762.72;5087904;28;20129;-82
2023/04/24 02:53:12;;;;;;;42.30;23.60;;;;;;;7.26;100.00;99750.53;5074227;28;20103;-81
2023/04/24 02:55:38;;;;;;;48.25;24.60;;;;;;;7.33;100.00;99755.78;5074025;28;20055;-81
2023/04/24 02:58:03;;;;;;;45.70;23.57;;;;;;;7.26;100.00;99755.03;5087788;28;20040;-80
2023/04/24 03:00:28;;;;;;;47.88;24.73;;;;;;;7.36;100.00;99744.69;5092495;28;20800;-81
2023/04/24 03:02:53;;;;;;;49.45;24.52;;;;;;;7.31;100.00;99741.88;5087928;28;20044;-82
2023/04/24 03:05:19;;;;;;;44.78;24.85;;;;;;;7.33;100.00;99751.25;5074419;28;20524;-81
2023/04/24 03:07:45;;;;;;;45.42;24.50;;;;;;;7.36;100.00;99747.34;5074525;28;20040;-81
2023/04/24 03:10:10;;;;;;;45.15;23.08;;;;;;;7.37;100.00;99746.31;5090350;28;20032;-80
2023/04/24 03:12:36;;;;;;;48.33;27.35;;;;;;;7.27;100.00;99736.19;5096093;28;20529;-82
2023/04/24 03:15:01;;;;;;;41.97;22.90;;;;;;;7.30;100.00;99741.06;5094714;28;20020;-81
2023/04/24 03:17:26;;;;;;;47.08;28.42;;;;;;;7.27;100.00;99741.50;5092303;28;20040;-81
2023/04/24 03:19:52;;;;;;;51.60;26.13;;;;;;;7.30;100.00;99749.03;5095732;28;20051;-81
2023/04/24 03:22:17;;;;;;;47.47;23.47;;;;;;;7.35;100.00;99753.69;5073561;28;20097;-82
2023/04/24 03:24:42;;;;;;;54.10;28.60;;;;;;;7.28;100.00;99737.81;5078125;28;20804;-80
2023/04/24 03:30:29;;;;;;;45.80;25.55;;;;;;;7.28;100.00;99739.66;5096380;28;20097;-81
2023/04/24 03:32:54;;;;;;;42.00;24.02;;;;;;;7.24;100.00;99741.97;5077818;28;20055;-84
2023/04/24 03:35:21;;;;;;;42.92;23.80;;;;;;;7.29;100.00;99757.25;5091148;28;20052;-83
2023/04/24 03:37:47;;;;;;;42.47;26.42;;;;;;;7.30;100.00;99757.03;5077426;28;20024;-80
2023/04/24 03:40:12;;;;;;;42.22;24.80;;;;;;;7.30;100.00;99753.56;5095170;28;20050;-80
2023/04/24 03:42:37;;;;;;;43.30;23.77;;;;;;;7.31;100.00;99761.31;5073771;28;20479;-80
2023/04/24 03:45:03;;;;;;;39.20;22.05;;;;;;;7.26;100.00;99745.19;5095465;28;20103;-80
2023/04/24 03:47:28;;;;;;;39.47;20.27;;;;;;;7.20;100.00;99745.25;5091483;28;20652;-81
2023/04/24 03:49:55;;;;;;;37.97;22.20;;;;;;;7.25;100.00;99743.59;5095289;28;20047;-81
2023/04/24 03:52:20;;;;;;;35.95;22.02;;;;;;;7.20;100.00;99740.75;5095526;28;20028;-82
2023/04/24 03:54:46;;;;;;;33.90;18.67;;;;;;;7.18;100.00;99731.34;5090768;28;20055;-83
2023/04/24 03:57:11;;;;;;;34.87;21.23;;;;;;;7.27;100.00;99748.69;5095338;28;20372;-84
2023/04/24 03:59:36;;;;;;;38.97;25.07;;;;;;;7.24;100.00;99741.97;5091664;28;20329;-81
2023/04/24 04:02:01;;;;;;;37.07;20.17;;;;;;;7.29;100.00;99752.75;5076620;28;20282;-83
2023/04/24 04:04:27;;;;;;;34.85;19.42;;;;;;;7.23;100.00;99737.66;5095029;28;20286;-83
2023/04/24 04:06:53;;;;;;;42.00;26.17;;;;;;;7.25;100.00;99734.78;5091234;28;20044;-81
2023/04/24 04:09:18;;;;;;;38.88;23.13;;;;;;;7.27;100.00;99748.69;5077090;28;20360;-81
2023/04/24 04:11:43;;;;;;;41.45;26.80;;;;;;;7.21;100.00;99736.22;5095364;28;20051;-79
2023/04/24 04:14:09;;;;;;;35.53;21.13;;;;;;;7.19;100.00;99744.44;5090735;28;20040;-81
2023/04/24 04:16:36;;;;;;;33.35;17.90;;;;;;;7.16;100.00;99742.22;5095126;28;20807;-83
2023/04/24 04:19:02;;;;;;;38.15;21.17;;;;;;;7.23;100.00;99758.09;5090312;28;20058;-86
2023/04/24 04:21:28;;;;;;;42.28;29.30;;;;;;;7.18;100.00;99742.81;5076833;28;20115;-81
2023/04/24 04:23:53;;;;;;;42.20;22.05;;;;;;;7.14;100.00;99753.06;5094695;28;20048;-81
2023/04/24 04:26:20;;;;;;;37.63;21.52;;;;;;;7.11;100.00;99756.16;5090542;28;20048;-80
2023/04/24 04:28:47;;;;;;;39.35;21.13;;;;;;;7.03;100.00;99751.13;5094854;28;20023;-81
2023/04/24 04:31:13;;;;;;;39.00;21.63;;;;;;;7.03;100.00;99753.78;5072634;28;20036;-80
2023/04/24 04:33:39;;;;;;;34.28;19.30;;;;;;;7.10;100.00;99751.88;5076530;28;20039;-81
2023/04/24 04:36:04;;;;;;;35.88;18.40;;;;;;;7.12;100.00;99752.47;5095419;28;20043;-80
2023/04/24 04:38:30;;;;;;;47.85;29.40;;;;;;;7.05;100.00;99765.00;5090137;28;20480;-81
2023/04/24 04:40:56;;;;;;;41.85;26.77;;;;;;;6.98;100.00;99737.69;5076390;28;20116;-80
2023/04/24 04:43:23;;;;;;;37.80;22.15;;;;;;;7.01;100.00;99753.19;5076191;28;20036;-81
2023/04/24 04:45:50;;;;;;;40.53;22.65;;;;;;;7.02;100.00;99759.31;5093244;28;20089;-80
2023/04/24 04:48:18;;;;;;;39.83;22.13;;;;;;;7.03;100.00;99761.75;5094710;28;20032;-80
2023/04/24 04:50:43;;;;;;;37.78;20.00;;;;;;;7.06;100.00;99757.84;5071902;28;20036;-80
2023/04/24 04:53:08;;;;;;;42.33;25.70;;;;;;;7.05;100.00;99756.22;5094126;28;20027;-81
2023/04/24 04:55:34;;;;;;;33.97;19.73;;;;;;;7.04;100.00;99762.56;5094705;28;20282;-80
2023/04/24 04:58:00;;;;;;;31.23;16.85;;;;;;;7.17;100.00;99766.94;5071611;28;20795;-80
2023/04/24 05:00:27;;;;;;;33.33;17.38;;;;;;;7.12;100.00;99772.94;5076033;28;20035;-80
2023/04/24 05:02:52;;;;;;;32.35;18.52;;;;;;;7.18;100.00;99787.19;5073507;28;20020;-82
2023/04/24 05:05:17;;;;;;;29.30;16.13;;;;;;;7.15;100.00;99783.13;5073781;28;20205;-79
2023/04/24 05:07:43;;;;;;;30.08;16.52;;;;;;;7.15;100.00;99780.47;5075767;28;20032;-80
2023/04/24 05:10:09;;;;;;;25.60;15.70;;;;;;;7.15;100.00;99772.50;5089438;28;20577;-80
2023/04/24 05:12:34;;;;;;;31.25;17.15;;;;;;;7.16;100.00;99784.75;5076056;28;20051;-81
2023/04/24 05:15:00;;;;;;;27.63;15.23;;;;;;;7.13;100.00;99769.22;5075825;28;20028;-79
2023/04/24 05:20:46;;;;;;;26.70;14.60;;;;;;;7.11;100.00;99784.59;5094311;28;20074;-81
2023/04/24 05:23:12;;;;;;;26.23;14.07;;;;;;;7.09;100.00;99784.81;5089860;28;20044;-79
2023/04/24 05:25:39;;;;;;;25.00;14.47;;;;;;;7.07;100.00;99781.56;5076193;28;20107;-80
2023/04/24 05:28:04;;;;;;;26.65;13.52;;;;;;;7.13;100.00;99783.34;5091275;28;20260;-81
2023/04/24 05:33:51;;;;;;;10.63;6.88;;;;;;;7.04;100.00;99792.63;5090079;28;20543;-83
2023/04/24 05:36:16;;;;;;;10.97;6.77;;;;;;;6.98;100.00;99785.53;5088972;28;20067;-81
2023/04/24 05:38:42;;;;;;;13.02;6.05;;;;;;;7.02;100.00;99801.84;5094168;28;20758;-81
2023/04/24 05:41:07;;;;;;;13.43;6.53;;;;;;;6.99;100.00;99765.88;5072611;28;20036;-81
2023/04/24 05:43:32;;;;;;;11.02;6.05;;;;;;;7.07;100.00;99794.84;5095104;28;20730;-82
2023/04/24 05:45:57;;;;;;;9.48;4.65;;;;;;;7.12;100.00;99794.19;5094190;28;20040;-82
2023/04/24 05:48:23;;;;;;;7.18;4.30;;;;;;;7.13;100.00;99801.94;5090303;28;20520;-81
2023/04/24 05:54:12;;;;;;;5.97;3.85;;;;;;;7.16;100.00;99827.28;5094877;28;20039;-82
2023/04/24 05:56:37;;;;;;;7.20;4.07;;;;;;;7.07;100.00;99826.75;5095089;28;20024;-82
2023/04/24 05:59:03;;;;;;;7.20;4.75;;;;;;;7.13;100.00;99849.78;5094721;28;20035;-81
2023/04/24 06:01:29;;;;;;;9.25;5.03;;;;;;;7.08;100.00;99848.81;5089749;28;20043;-82
2023/04/24 06:03:55;;;;;;;8.55;5.55;;;;;;;7.04;100.00;99843.13;5093515;28;20494;-83
2023/04/24 06:06:20;;;;;;;7.50;4.93;;;;;;;7.13;100.00;99868.41;5089223;28;20044;-81
2023/04/24 06:12:08;;;;;;;9.05;5.18;;;;;;;7.11;100.00;99867.00;5089788;28;20383;-80
2023/04/24 06:14:33;;;;;;;8.25;5.40;;;;;;;7.09;100.00;99871.72;5089964;28;20429;-81
2023/04/24 06:16:59;;;;;;;9.82;5.95;;;;;;;7.11;100.00;99878.44;5093261;28;20099;-81
2023/04/24 06:19:24;;;;;;;11.75;7.03;;;;;;;7.18;100.00;99888.19;5088384;28;20047;-82
2023/04/24 06:21:49;;;;;;;8.35;5.40;;;;;;;7.15;100.00;99887.59;5093264;28;20111;-81
2023/04/24 06:24:16;;;;;;;8.38;5.90;;;;;;;7.15;100.00;99886.78;5074942;28;20047;-81
2023/04/24 06:26:41;;;;;;;8.75;5.35;;;;;;;7.20;100.00;99896.78;5088983;28;20372;-82
2023/04/24 06:32:30;;;;;;;10.93;7.30;;;;;;;7.16;100.00;99907.03;5093326;28;20051;-81
2023/04/24 06:34:55;;;;;;;10.40;7.47;;;;;;;7.24;100.00;99930.72;5092700;28;20024;-82
2023/04/24 06:37:21;;;;;;;14.07;8.63;;;;;;;7.23;100.00;99933.56;5087963;28;20051;-84
2023/04/24 06:39:46;;;;;;;13.25;9.65;;;;;;;7.27;100.00;99932.13;5092899;28;20289;-80
2023/04/24 06:42:11;;;;;;;11.90;8.27;;;;;;;7.19;100.00;99919.06;5093262;28;20028;-80
2023/04/24 06:44:40;;;;;;;12.50;8.43;;;;;;;7.32;100.00;99929.63;5087357;28;20361;-82
2023/04/24 06:47:07;;;;;;;8.95;6.18;;;;;;;7.29;100.00;99933.53;5092987;28;20024;-80
2023/04/24 06:49:33;;;;;;;11.63;6.85;;;;;;;7.31;100.00;99936.81;5092121;28;20063;-82
2023/04/24 06:51:58;;;;;;;14.77;7.45;;;;;;;7.28;100.00;99950.53;5070609;28;20063;-81
2023/04/24 06:54:23;;;;;;;10.65;7.18;;;;;;;7.39;100.00;99959.66;5092431;28;20031;-83
2023/04/24 06:56:50;;;;;;;15.27;8.75;;;;;;;7.25;100.00;99956.28;5088011;28;20500;-81
2023/04/24 06:59:15;;;;;;;15.15;8.07;;;;;;;7.29;100.00;99972.63;5092421;28;20494;-82
2023/04/24 07:01:40;;;;;;;20.83;10.68;;;;;;;7.33;100.00;99981.78;5073989;28;20051;-81
2023/04/24 07:04:05;;;;;;;15.00;9.03;;;;;;;7.28;100.00;99984.28;5087986;28;20039;-79
2023/04/24 07:06:31;;;;;;;19.15;12.20;;;;;;;7.31;100.00;100011.25;5074210;28;20773;-79
2023/04/24 07:08:56;;;;;;;20.55;11.80;;;;;;;7.24;100.00;100012.31;5070382;28;20132;-81
2023/04/24 07:11:23;;;;;;;19.75;11.82;;;;;;;7.12;100.00;100028.13;5092380;28;20054;-80
2023/04/24 07:13:48;;;;;;;31.38;14.15;;;;;;;7.05;100.00;100030.00;5074468;28;20028;-81
2023/04/24 07:16:14;;;;;;;18.80;11.48;;;;;;;7.07;100.00;100041.22;5069858;28;20117;-80
2023/04/24 07:18:39;;;;;;;18.92;10.63;;;;;;;7.01;100.00;100050.06;5074484;28;20028;-79
2023/04/24 07:21:05;;;;;;;17.02;11.35;;;;;;;7.07;100.00;100063.31;5092192;28;20051;-80
2023/04/24 07:23:31;;;;;;;27.15;14.45;;;;;;;6.99;100.00;100063.56;5088058;28;20052;-79
2023/04/24 07:25:56;;;;;;;26.02;13.10;;;;;;;7.02;100.00;100083.56;5092022;28;20476;-83
2023/04/24 07:28:21;;;;;;;20.02;11.43;;;;;;;7.02;100.00;100075.59;5087789;28;20097;-83
2023/04/24 07:30:47;;;;;;;29.73;13.80;;;;;;;6.90;100.00;100086.03;5073904;28;20118;-82
2023/04/24 07:33:13;;;;;;;24.40;13.40;;;;;;;6.93;100.00;100090.94;5091950;28;20032;-83
2023/04/24 07:35:38;;;;;;;16.42;10.07;;;;;;;6.95;100.00;100096.06;5087426;28;20293;-83
2023/04/24 07:38:03;;;;;;;16.17;10.43;;;;;;;7.08;100.00;100123.41;5092003;28;20028;-81
2023/04/24 07:40:29;;;;;;;23.60;11.82;;;;;;;7.01;100.00;100113.84;5087482;28;20036;-82
2023/04/24 07:42:54;;;;;;;21.65;11.98;;;;;;;6.93;100.00;100120.16;5074317;28;20021;-81
2023/04/24 07:45:20;;;;;;;19.00;10.90;;;;;;;6.99;100.00;100139.81;5091935;28;20240;-81
2023/04/24 07:47:45;;;;;;;21.70;11.23;;;;;;;6.93;100.00;100140.63;5069638;28;20079;-80
2023/04/24 07:50:12;;;;;;;14.48;8.40;;;;;;;6.98;100.00;100144.31;5057107;28;20081;-81
2023/04/24 07:52:38;;;;;;;17.15;9.38;;;;;;;6.95;100.00;100162.50;5073675;28;20089;-83
2023/04/24 07:55:03;;;;;;;18.60;9.38;;;;;;;7.06;100.00;100162.69;5070612;28;20040;-79
2023/04/24 07:57:29;;;;;;;16.20;8.45;;;;;;;6.84;100.00;100162.09;5077298;28;20039;-80
2023/04/24 07:59:55;;;;;;;26.77;10.65;;;;;;;6.95;100.00;100176.63;5090982;28;20044;-80
2023/04/24 08:02:25;;;;;;;19.70;8.45;;;;;;;6.97;100.00;100179.88;5077153;28;20020;-80
2023/04/24 08:08:13;;;;;;;14.77;7.75;;;;;;;6.95;100.00;100181.94;5095414;28;20521;-81
2023/04/24 08:10:38;;;;;;;16.38;7.90;;;;;;;7.11;100.00;100196.63;5095340;28;20028;-80
2023/04/24 08:16:26;;;;;;;22.67;9.70;;;;;;;6.97;100.00;100209.13;5095368;28;20051;-82
2023/04/24 08:18:51;;;;;;;22.42;9.40;;;;;;;7.00;100.00;100218.53;5072617;28;20036;-83
2023/04/24 08:21:18;;;;;;;30.20;10.07;;;;;;;7.02;100.00;100214.63;5094859;28;20039;-80
2023/04/24 08:23:44;;;;;;;26.80;10.00;;;;;;;7.05;100.00;100222.19;5090487;28;20078;-81
2023/04/24 08:26:10;;;;;;;22.48;9.95;;;;;;;7.10;100.00;100222.38;5094942;28;20530;-80
2023/04/24 08:28:36;;;;;;;26.25;9.75;;;;;;;7.17;100.00;100229.53;5076467;28;20020;-81
2023/04/24 08:31:01;;;;;;;26.45;8.52;;;;;;;7.18;100.00;100236.47;5090263;28;20069;-79
2023/04/24 08:33:26;;;;;;;30.00;10.27;;;;;;;7.17;100.00;100245.47;5095076;28;20028;-81
2023/04/24 08:35:52;;;;;;;28.20;10.52;;;;;;;7.19;100.00;100241.59;5090200;28;20770;-79
2023/04/24 08:38:18;;;;;;;28.92;9.75;;;;;;;7.17;100.00;100259.59;5094786;28;20497;-80
2023/04/24 08:40:45;;;;;;;21.67;7.93;;;;;;;7.18;100.00;100255.09;5076247;28;20078;-82
2023/04/24 08:43:11;;;;;;;19.48;7.00;;;;;;;7.12;100.00;100251.41;5090058;28;20473;-80
2023/04/24 08:45:38;;;;;;;30.05;8.77;;;;;;;7.19;100.00;100270.00;5094610;28;20089;-79
2023/04/24 08:48:04;;;;;;;25.23;8.82;;;;;;;7.15;100.00;100273.09;5071915;28;20036;-80
2023/04/24 08:50:30;;;;;;;20.92;6.95;;;;;;;7.18;100.00;100261.22;5094335;28;20024;-81
2023/04/24 08:56:17;;;;;;;21.65;6.68;;;;;;;7.57;100.00;100291.47;5090618;28;20035;-79
2023/04/24 09:02:04;;;;;;;20.50;6.05;;;;;;;7.97;100.00;100300.97;5094924;28;20051;-78
2023/04/24 09:04:31;;;;;;;19.83;5.78;;;;;;;7.72;100.00;100297.34;5093883;28;20024;-78
2023/04/24 09:06:58;;;;;;;13.38;4.85;;;;;;;7.52;100.00;100302.72;5089999;28;20454;-79
2023/04/24 09:09:30;;;;;;;13.80;4.55;;;;;;;7.45;100.00;100315.19;5095731;28;20395;-80
2023/04/24 09:11:57;;;;;;;11.05;4.78;;;;;;;7.38;100.00;100325.84;5090325;28;20089;-79
2023/04/24 09:14:23;;;;;;;15.25;5.35;;;;;;;7.27;100.00;100312.38;5095963;28;20024;-80
2023/04/24 09:16:49;;;;;;;13.00;4.45;;;;;;;7.15;100.00;100310.31;5074120;28;20071;-83
2023/04/24 09:19:14;;;;;;;13.05;4.35;;;;;;;7.10;100.00;100311.94;5095721;28;20039;-83
2023/04/24 09:21:41;;;;;;;14.85;4.32;;;;;;;7.20;100.00;100328.31;5078724;28;20028;-82
2023/04/24 09:24:17;;;;;;;11.30;4.00;;;;;;;7.38;100.00;100333.84;5091566;28;20036;-80
2023/04/24 09:26:43;;;;;;;13.15;4.35;;;;;;;7.69;100.00;100325.19;5096247;28;20028;-79
2023/04/24 09:29:15;;;;;;;8.32;3.92;;;;;;;7.88;100.00;100322.72;5075440;28;20083;-80
2023/04/24 09:31:40;;;;;;;10.88;4.30;;;;;;;8.03;100.00;100347.22;5100788;28;20024;-80
2023/04/24 09:37:29;;;;;;;16.58;5.15;;;;;;;7.70;100.00;100364.09;5099294;28;20043;-79
2023/04/24 09:40:16;;;;;;;10.70;3.78;;;;;;;7.60;100.00;100369.03;5097271;28;20024;-82
2023/04/24 09:46:06;;;;;;;16.05;5.45;;;;;;;7.41;100.00;100375.16;5096898;28;20043;-80
2023/04/24 09:48:34;;;;;;;11.80;4.22;;;;;;;7.49;100.00;100382.09;5092213;28;20419;-80
2023/04/24 09:54:22;;;;;;;14.63;4.10;;;;;;;7.76;100.00;100391.69;5095975;28;20039;-79
2023/04/24 09:56:50;;;;;;;12.05;4.55;;;;;;;8.05;100.00;100401.91;5094337;28;20028;-79
2023/04/24 09:59:17;;;;;;;12.75;4.15;;;;;;;8.15;100.00;100393.50;5072567;28;20028;-79
2023/04/24 10:01:44;;;;;;;12.43;3.63;;;;;;;8.26;100.00;100410.66;5076432;28;20046;-82
2023/04/24 10:07:32;;;;;;;9.45;3.08;;;;;;;8.59;100.00;100419.38;5094459;28;20169;-80
2023/04/24 10:13:20;;;;;;;5.70;3.33;;;;;;;9.00;100.00;100419.00;5094312;28;20055;-79
2023/04/24 10:15:48;;;;;;;6.63;3.80;;;;;;;8.91;100.00;100427.44;5075270;28;20460;-82
2023/04/24 10:21:38;;;;;;;9.57;2.70;;;;;;;8.86;100.00;100427.25;5089279;28;20044;-82
2023/04/24 10:24:07;;;;;;;12.88;3.17;;;;;;;8.76;100.00;100438.41;5090594;28;20047;-81
2023/04/24 10:26:32;;;;;;;5.88;2.40;;;;;;;8.82;100.00;100426.88;5075273;28;20036;-81
2023/04/24 10:28:58;;;;;;;8.35;2.42;;;;;;;8.90;100.00;100447.94;5071861;28;20031;-81
2023/04/24 10:31:24;;;;;;;6.65;2.38;;;;;;;8.97;100.00;100419.44;5075851;28;20032;-79
2023/04/24 10:33:52;;;;;;;8.57;1.67;;;;;;;8.93;100.00;100433.38;5090029;28;20047;-80
2023/04/24 10:36:18;;;;;;;3.60;1.80;;;;;;;9.01;100.00;100443.81;5092331;28;20047;-80
2023/04/24 10:38:46;;;;;;;4.82;1.90;;;;;;;8.86;100.00;100440.59;5094849;28;20031;-79
2023/04/24 10:44:37;;;;;;;6.15;3.95;;;;;;;8.45;100.00;100449.78;5099527;28;20047;-81
2023/04/24 10:50:26;;;;;;;9.65;2.97;;;;;;;8.63;100.00;100470.41;5099063;28;20046;-79
2023/04/24 10:52:53;;;;;;;5.18;2.90;;;;;;;8.62;100.00;100474.09;5091057;28;20043;-81
2023/04/24 10:55:48;;;;;;;8.60;2.20;;;;;;;8.56;100.00;100483.75;5098107;28;20032;-81
2023/04/24 10:58:16;;;;;;;4.30;2.42;;;;;;;8.53;100.00;100472.72;5074001;28;20052;-82
2023/04/24 11:00:43;;;;;;;6.32;3.25;;;;;;;8.71;100.00;100482.72;5096842;28;20052;-82
2023/04/24 11:03:29;;;;;;;5.05;2.38;;;;;;;8.65;100.00;100479.00;5096232;28;20111;-81
2023/04/24 11:09:16;;;;;;;5.07;2.60;;;;;;;8.65;100.00;100484.34;5097740;28;20046;-80
2023/04/24 11:11:46;;;;;;;10.27;2.60;;;;;;;8.71;100.00;100494.19;5074269;28;20036;-82
2023/04/24 11:14:14;;;;;;;2.80;1.80;;;;;;;8.71;100.00;100488.84;5100402;28;20042;-80
2023/04/24 11:16:56;;;;;;;2.92;2.30;;;;;;;9.07;100.00;100509.63;5075088;28;20078;-82
2023/04/24 11:19:26;;;;;;;7.38;2.83;;;;;;;9.26;100.00;100500.72;5101180;28;20039;-82
2023/04/24 11:25:16;;;;;;;5.50;2.50;;;;;;;9.05;100.00;100493.03;5098197;28;20058;-82
2023/04/24 11:27:42;;;;;;;6.03;3.42;;;;;;;8.97;100.00;100502.09;5096635;28;20150;-83
2023/04/24 11:30:10;;;;;;;9.00;5.57;;;;;;;8.97;100.00;100518.09;5094565;28;20036;-81
2023/04/24 11:32:38;;;;;;;7.60;3.35;;;;;;;9.06;100.00;100508.00;5081728;28;20035;-83
2023/04/24 11:35:16;;;;;;;9.05;6.40;;;;;;;9.19;100.00;100507.09;5095790;28;20044;-79
2023/04/24 11:37:50;;;;;;;4.20;2.10;;;;;;;9.36;100.00;100524.25;5099362;28;20031;-82
2023/04/24 11:40:20;;;;;;;38.00;28.35;;;;;;;9.60;100.00;100531.50;5078091;28;20117;-83
2023/04/24 11:42:47;;;;;;;3.92;2.20;;;;;;;9.74;100.00;100534.06;5099255;28;20024;-83
2023/04/24 11:48:36;;;;;;;4.60;4.20;;;;;;;9.52;100.00;100542.41;5100530;28;20077;-80
2023/04/24 11:51:02;;;;;;;4.20;2.00;;;;;;;9.19;100.00;100536.44;5099771;28;20240;-82
2023/04/24 11:53:27;;;;;;;5.80;2.00;;;;;;;9.07;100.00;100551.47;5095573;28;20426;-82
2023/04/24 11:55:52;;;;;;;5.22;2.10;;;;;;;8.87;100.00;100546.22;5083684;28;20028;-83
2023/04/24 11:58:20;;;;;;;7.68;2.08;;;;;;;8.78;100.00;100545.63;5098084;28;20043;-82
2023/04/24 12:00:55;;;;;;;7.32;2.30;;;;;;;8.62;100.00;100554.88;5082905;28;20530;-82
2023/04/24 12:03:20;;;;;;;6.28;2.30;;;;;;;8.57;100.00;100544.03;5081446;28;20032;-82
2023/04/24 12:05:46;;;;;;;3.53;1.85;;;;;;;8.66;100.00;100556.09;5094737;28;20115;-82
2023/04/24 12:08:11;;;;;;;6.25;2.42;;;;;;;8.85;100.00;100557.09;5080753;28;20502;-82
2023/04/24 12:10:36;;;;;;;5.65;2.35;;;;;;;9.10;100.00;100545.72;5078216;28;20166;-82
2023/04/24 12:13:01;;;;;;;4.72;2.13;;;;;;;9.41;100.00;100552.97;5081391;28;20472;-82
2023/04/24 12:15:27;;;;;;;6.45;2.53;;;;;;;9.63;100.00;100552.44;5083162;28;20449;-82
2023/04/24 12:17:54;;;;;;;4.35;1.80;;;;;;;9.82;100.00;100558.66;5075978;28;20069;-82
2023/04/24 12:23:46;;;;;;;1.83;1.70;;;;;;;9.63;100.00;100562.28;5098103;28;20100;-82
2023/04/24 12:26:16;;;;;;;7.68;2.05;;;;;;;9.63;100.00;100556.94;5079356;28;20025;-82
2023/04/24 12:28:41;;;;;;;5.60;2.20;;;;;;;9.70;100.00;100562.25;5091871;28;20044;-81
2023/04/24 12:31:07;;;;;;;7.50;2.33;;;;;;;9.86;100.00;100561.75;5098342;28;20099;-82
2023/04/24 12:33:34;;;;;;;8.02;2.50;;;;;;;10.14;100.00;100567.50;5097163;28;20028;-82
2023/04/24 12:36:00;;;;;;;3.92;2.20;;;;;;;10.07;100.00;100572.03;5075004;28;20404;-80
2023/04/24 12:38:27;;;;;;;1.75;1.63;;;;;;;10.22;100.00;100569.91;5078913;28;20020;-80
2023/04/24 12:41:04;;;;;;;6.32;2.22;;;;;;;10.32;100.00;100579.28;5091681;28;20128;-81
2023/04/24 12:43:29;;;;;;;4.35;1.95;;;;;;;10.26;100.00;100588.16;5078078;28;20447;-82
2023/04/24 12:45:54;;;;;;;3.35;1.83;;;;;;;10.14;100.00;100590.72;5078320;28;20062;-81